createdAt,value
2022-10-17T00:01:01.765Z,101572.75
2022-10-17T00:03:58.821Z,101580.34
2022-10-17T00:06:56.045Z,101583.16
2022-10-17T00:09:53.029Z,101586.00
2022-10-17T00:12:51.139Z,101582.63
2022-10-17T00:15:48.079Z,101585.38
2022-10-17T00:18:45.224Z,101591.81
2022-10-17T00:21:41.556Z,101583.75
2022-10-17T00:24:38.904Z,101584.78
2022-10-17T00:27:37.105Z,101597.69
2022-10-17T00:30:34.035Z,101611.63
2022-10-17T00:33:31.051Z,101606.03
2022-10-17T00:36:28.052Z,101601.25
2022-10-17T00:39:25.360Z,101600.47
2022-10-17T00:42:25.177Z,101593.63
2022-10-17T00:45:29.601Z,101602.97
2022-10-17T00:48:27.423Z,101604.34
2022-10-17T00:51:35.185Z,101599.13
2022-10-17T00:54:34.032Z,101601.03
2022-10-17T00:57:31.179Z,101602.16
2022-10-17T01:00:27.653Z,101601.41
2022-10-17T01:03:25.151Z,101598.19
2022-10-17T01:06:22.114Z,101592.41
2022-10-17T01:09:18.812Z,101593.06
2022-10-17T01:12:27.625Z,101579.59
2022-10-17T01:15:39.893Z,101570.03
2022-10-17T01:18:52.109Z,101568.84
2022-10-17T01:22:28.059Z,101565.28
2022-10-17T01:25:55.632Z,101574.38
2022-10-17T01:29:17.723Z,101575.06
2022-10-17T01:32:33.811Z,101575.56
2022-10-17T01:35:41.300Z,101576.63
2022-10-17T01:38:47.827Z,101569.63
2022-10-17T01:41:47.178Z,101564.47
2022-10-17T01:44:46.812Z,101566.84
2022-10-17T01:47:43.835Z,101564.00
2022-10-17T01:50:43.579Z,101555.28
2022-10-17T01:53:44.806Z,101539.88
2022-10-17T01:56:41.700Z,101536.34
2022-10-17T01:59:42.868Z,101523.09
2022-10-17T02:02:41.254Z,101519.22
2022-10-17T02:05:41.366Z,101521.75
2022-10-17T02:08:48.480Z,101514.75
2022-10-17T02:12:04.325Z,101514.84
2022-10-17T02:15:40.410Z,101518.91
2022-10-17T02:18:51.040Z,101514.25
2022-10-17T02:22:10.623Z,101498.53
2022-10-17T02:25:19.103Z,101494.03
2022-10-17T02:28:21.053Z,101492.94
2022-10-17T02:31:27.272Z,101494.84
2022-10-17T02:34:29.344Z,101499.19
2022-10-17T02:37:27.747Z,101495.16
2022-10-17T02:40:24.927Z,101491.06
2022-10-17T02:43:22.995Z,101492.25
2022-10-17T02:46:22.316Z,101488.69
2022-10-17T02:49:24.559Z,101486.69
2022-10-17T02:53:07.743Z,101494.59
2022-10-17T02:56:09.069Z,101491.94
2022-10-17T02:59:06.179Z,101500.00
2022-10-17T03:02:06.539Z,101507.06
2022-10-17T03:05:04.208Z,101500.88
2022-10-17T03:08:01.010Z,101508.66
2022-10-17T03:10:58.059Z,101504.09
2022-10-17T03:13:56.844Z,101492.72
2022-10-17T03:16:53.767Z,101484.09
2022-10-17T03:19:51.141Z,101493.13
2022-10-17T03:22:48.127Z,101485.50
2022-10-17T03:25:45.179Z,101487.50
2022-10-17T03:28:44.188Z,101486.44
2022-10-17T03:31:42.211Z,101470.94
2022-10-17T03:34:40.000Z,101470.84
2022-10-17T03:37:37.814Z,101464.25
2022-10-17T03:40:35.227Z,101471.09
2022-10-17T03:43:31.735Z,101474.66
2022-10-17T03:46:29.029Z,101474.66
2022-10-17T03:49:31.020Z,101481.53
2022-10-17T03:52:27.866Z,101482.09
2022-10-17T03:55:26.339Z,101487.59
2022-10-17T03:58:23.968Z,101484.16
2022-10-17T04:01:22.304Z,101494.78
2022-10-17T04:04:20.208Z,101499.94
2022-10-17T04:07:17.042Z,101486.88
2022-10-17T04:10:15.951Z,101493.91
2022-10-17T04:13:13.135Z,101496.19
2022-10-17T04:16:18.010Z,101495.56
2022-10-17T04:19:22.151Z,101494.34
2022-10-17T04:22:20.005Z,101494.72
2022-10-17T04:25:16.857Z,101489.41
2022-10-17T04:28:17.199Z,101485.16
2022-10-17T04:31:14.502Z,101486.28
2022-10-17T04:34:31.105Z,101481.66
2022-10-17T04:37:29.331Z,101488.28
2022-10-17T04:40:27.000Z,101480.69
2022-10-17T04:43:24.287Z,101483.06
2022-10-17T04:46:22.134Z,101474.19
2022-10-17T04:49:19.080Z,101473.25
2022-10-17T04:52:19.028Z,101467.56
2022-10-17T04:55:19.039Z,101472.53
2022-10-17T04:58:16.071Z,101466.50
2022-10-17T05:01:15.782Z,101481.97
2022-10-17T05:04:15.073Z,101478.25
2022-10-17T05:07:13.258Z,101471.19
2022-10-17T05:10:13.170Z,101461.47
2022-10-17T05:13:13.791Z,101462.88
2022-10-17T05:16:11.224Z,101456.53
2022-10-17T05:19:08.155Z,101454.53
2022-10-17T05:22:13.190Z,101459.47
2022-10-17T05:25:12.150Z,101444.97
2022-10-17T05:28:09.084Z,101440.97
2022-10-17T05:31:08.457Z,101447.09
2022-10-17T05:34:08.043Z,101440.78
2022-10-17T05:37:08.400Z,101444.25
2022-10-17T05:40:06.886Z,101443.59
2022-10-17T05:43:04.174Z,101442.84
2022-10-17T05:46:06.162Z,101456.09
2022-10-17T05:49:14.713Z,101455.13
2022-10-17T05:52:20.917Z,101459.44
2022-10-17T05:55:29.061Z,101461.66
2022-10-17T06:01:57.049Z,101442.59
2022-10-17T06:04:53.943Z,101450.09
2022-10-17T06:07:57.007Z,101464.06
2022-10-17T06:10:57.085Z,101460.13
2022-10-17T06:13:54.125Z,101476.53
2022-10-17T06:16:55.239Z,101466.25
2022-10-17T06:19:52.229Z,101466.72
2022-10-17T06:22:49.160Z,101480.09
2022-10-17T06:25:54.261Z,101483.03
2022-10-17T06:28:50.999Z,101480.09
2022-10-17T06:31:48.794Z,101484.47
2022-10-17T06:34:46.016Z,101500.38
2022-10-17T06:37:43.163Z,101499.63
2022-10-17T06:40:40.147Z,101498.25
2022-10-17T06:43:37.652Z,101509.56
2022-10-17T06:46:53.512Z,101514.34
2022-10-17T06:49:52.075Z,101523.38
2022-10-17T06:52:55.001Z,101501.94
2022-10-17T06:56:19.481Z,101519.28
2022-10-17T06:59:37.083Z,101533.97
2022-10-17T07:02:40.032Z,101528.97
2022-10-17T07:05:37.345Z,101540.53
2022-10-17T07:08:34.190Z,101546.94
2022-10-17T07:11:33.793Z,101542.84
2022-10-17T07:14:32.305Z,101546.25
2022-10-17T07:17:31.356Z,101536.00
2022-10-17T07:20:29.304Z,101531.75
2022-10-17T07:23:26.000Z,101536.56
2022-10-17T07:26:24.779Z,101530.88
2022-10-17T07:29:22.170Z,101523.69
2022-10-17T07:32:35.390Z,101518.19
2022-10-17T07:35:33.322Z,101527.66
2022-10-17T07:38:31.353Z,101520.66
2022-10-17T07:41:28.194Z,101527.63
2022-10-17T07:44:25.600Z,101535.56
2022-10-17T07:47:23.908Z,101535.13
2022-10-17T07:50:22.409Z,101538.31
2022-10-17T07:53:19.062Z,101536.41
2022-10-17T07:56:16.651Z,101546.38
2022-10-17T07:59:14.092Z,101541.84
2022-10-17T08:02:24.833Z,101541.41
2022-10-17T08:05:22.182Z,101559.31
2022-10-17T08:08:19.343Z,101553.50
2022-10-17T08:11:16.096Z,101552.38
2022-10-17T08:14:13.645Z,101554.47
2022-10-17T08:17:11.414Z,101551.25
2022-10-17T08:20:08.777Z,101546.47
2022-10-17T08:23:06.382Z,101544.47
2022-10-17T08:26:05.038Z,101547.31
2022-10-17T08:29:02.235Z,101544.63
2022-10-17T08:32:01.843Z,101544.19
2022-10-17T08:34:59.038Z,101538.13
2022-10-17T08:37:58.509Z,101524.91
2022-10-17T08:41:00.495Z,101528.44
2022-10-17T08:44:03.260Z,101533.97
2022-10-17T08:47:01.771Z,101537.38
2022-10-17T08:50:00.894Z,101550.28
2022-10-17T08:53:09.252Z,101549.06
2022-10-17T08:56:19.881Z,101549.94
2022-10-17T08:59:28.749Z,101549.97
2022-10-17T09:02:38.011Z,101549.69
2022-10-17T09:05:42.324Z,101545.66
2022-10-17T09:08:55.147Z,101546.94
2022-10-17T09:11:59.010Z,101552.28
2022-10-17T09:15:02.123Z,101557.22
2022-10-17T09:18:22.290Z,101572.06
2022-10-17T09:21:27.171Z,101555.97
2022-10-17T09:24:41.383Z,101562.47
2022-10-17T09:27:46.976Z,101571.91
2022-10-17T09:30:46.720Z,101569.13
2022-10-17T09:34:00.731Z,101572.44
2022-10-17T09:36:59.577Z,101563.81
2022-10-17T09:39:56.466Z,101574.50
2022-10-17T09:42:53.632Z,101579.41
2022-10-17T09:46:06.645Z,101584.25
2022-10-17T09:49:17.251Z,101589.19
2022-10-17T09:52:18.382Z,101597.78
2022-10-17T09:55:19.292Z,101604.78
2022-10-17T09:58:16.589Z,101612.16
2022-10-17T10:01:24.548Z,101607.25
2022-10-17T10:04:22.329Z,101617.00
2022-10-17T10:07:21.479Z,101614.50
2022-10-17T10:10:27.647Z,101629.75
2022-10-17T10:13:26.263Z,101634.63
2022-10-17T10:16:31.963Z,101625.88
2022-10-17T10:19:31.670Z,101647.19
2022-10-17T10:22:28.673Z,101653.81
2022-10-17T10:25:26.536Z,101641.88
2022-10-17T10:28:28.962Z,101650.53
2022-10-17T10:31:28.825Z,101663.28
2022-10-17T10:34:28.980Z,101677.06
2022-10-17T10:37:30.954Z,101686.06
2022-10-17T10:40:32.961Z,101689.84
2022-10-17T10:43:35.534Z,101698.91
2022-10-17T10:46:32.453Z,101696.81
2022-10-17T10:49:30.868Z,101693.97
2022-10-17T10:52:34.509Z,101684.94
2022-10-17T10:55:35.031Z,101682.03
2022-10-17T10:59:06.029Z,101689.34
2022-10-17T11:02:20.538Z,101693.03
2022-10-17T11:05:42.558Z,101700.44
2022-10-17T11:08:42.216Z,101679.59
2022-10-17T11:11:45.222Z,101690.69
2022-10-17T11:15:04.080Z,101706.63
2022-10-17T11:18:03.176Z,101721.75
2022-10-17T11:21:11.813Z,101721.69
2022-10-17T11:24:23.933Z,101744.88
2022-10-17T11:27:21.447Z,101759.66
2022-10-17T11:30:18.414Z,101774.88
2022-10-17T11:33:41.140Z,101798.09
2022-10-17T11:36:40.295Z,101756.81
2022-10-17T11:40:30.784Z,101757.38
2022-10-17T11:43:34.474Z,101742.53
2022-10-17T11:46:31.417Z,101758.84
2022-10-17T11:49:40.514Z,101741.22
2022-10-17T11:52:55.991Z,101742.94
2022-10-17T11:55:54.711Z,101747.34
2022-10-17T11:59:17.341Z,101742.50
2022-10-17T12:02:29.454Z,101759.13
2022-10-17T12:05:55.618Z,101727.28
2022-10-17T12:09:01.240Z,101729.22
2022-10-17T12:12:00.079Z,101733.50
2022-10-17T12:15:25.456Z,101720.78
2022-10-17T12:18:25.106Z,101719.84
2022-10-17T12:21:22.556Z,101765.84
2022-10-17T12:24:31.407Z,101787.69
2022-10-17T12:27:46.042Z,101795.31
2022-10-17T12:30:51.548Z,101793.16
2022-10-17T12:34:16.250Z,101791.38
2022-10-17T12:37:15.133Z,101766.44
2022-10-17T12:40:37.456Z,101795.53
2022-10-17T12:43:43.951Z,101823.19
2022-10-17T12:46:44.424Z,101787.16
2022-10-17T12:49:45.746Z,101782.22
2022-10-17T12:52:42.570Z,101766.59
2022-10-17T12:55:39.716Z,101771.63
2022-10-17T12:58:36.546Z,101761.19
2022-10-17T13:01:34.387Z,101764.81
2022-10-17T13:04:31.544Z,101785.78
2022-10-17T13:07:28.546Z,101791.44
2022-10-17T13:10:29.257Z,101778.84
2022-10-17T13:13:35.839Z,101789.28
2022-10-17T13:16:51.684Z,101783.63
2022-10-17T13:19:48.824Z,101794.28
2022-10-17T13:22:45.545Z,101801.09
2022-10-17T13:25:42.990Z,101795.00
2022-10-17T13:28:40.875Z,101816.28
2022-10-17T13:31:40.637Z,101814.63
2022-10-17T13:34:37.732Z,101815.50
2022-10-17T13:37:35.508Z,101817.63
2022-10-17T13:40:48.406Z,101826.22
2022-10-17T13:43:47.429Z,101840.09
2022-10-17T13:46:45.077Z,101844.34
2022-10-17T13:49:43.032Z,101855.91
2022-10-17T13:52:40.423Z,101854.72
2022-10-17T13:55:37.574Z,101864.94
2022-10-17T13:58:45.808Z,101863.25
2022-10-17T14:01:42.500Z,101867.25
2022-10-17T14:05:04.099Z,101861.47
2022-10-17T14:08:11.230Z,101868.53
2022-10-17T14:11:24.154Z,101857.63
2022-10-17T14:14:23.555Z,101861.28
2022-10-17T14:17:29.015Z,101864.59
2022-10-17T14:23:46.731Z,101868.72
2022-10-17T14:26:48.333Z,101882.69
2022-10-17T14:29:52.988Z,101871.09
2022-10-17T14:32:50.329Z,101872.38
2022-10-17T14:35:51.781Z,101876.78
2022-10-17T14:38:51.268Z,101884.25
2022-10-17T14:41:48.769Z,101890.66
2022-10-17T14:44:50.980Z,101888.25
2022-10-17T14:47:50.104Z,101892.88
2022-10-17T14:51:06.014Z,101893.44
2022-10-17T14:54:35.024Z,101898.38
2022-10-17T14:57:32.530Z,101887.75
2022-10-17T15:00:29.642Z,101894.31
2022-10-17T15:03:26.807Z,101882.75
2022-10-17T15:06:29.636Z,101877.81
2022-10-17T15:09:29.258Z,101887.56
2022-10-17T15:12:26.777Z,101891.84
2022-10-17T15:15:23.773Z,101893.06
2022-10-17T15:18:20.866Z,101903.84
2022-10-17T15:21:33.304Z,101900.97
2022-10-17T15:24:34.686Z,101905.59
2022-10-17T15:27:32.727Z,101916.25
2022-10-17T15:30:32.892Z,101913.91
2022-10-17T15:33:29.531Z,101908.97
2022-10-17T15:36:29.052Z,101907.78
2022-10-17T15:39:26.476Z,101911.88
2022-10-17T15:42:28.083Z,101914.63
2022-10-17T15:45:25.884Z,101921.22
2022-10-17T15:48:28.019Z,101910.75
2022-10-17T15:51:25.478Z,101926.69
2022-10-17T15:54:22.464Z,101924.34
2022-10-17T15:57:27.986Z,101923.56
2022-10-17T16:00:25.532Z,101933.66
2022-10-17T16:06:24.732Z,101960.88
2022-10-17T16:09:21.655Z,101968.22
2022-10-17T16:15:22.982Z,101974.97
2022-10-17T16:18:20.215Z,101985.84
2022-10-17T16:21:18.081Z,101974.56
2022-10-17T16:24:15.869Z,101984.38
2022-10-17T16:27:13.075Z,101987.72
2022-10-17T16:30:10.613Z,101998.41
2022-10-17T16:33:07.733Z,101981.81
2022-10-17T16:36:04.601Z,101979.53
2022-10-17T16:39:01.712Z,101983.44
2022-10-17T16:41:58.900Z,101982.03
2022-10-17T16:44:55.960Z,101982.25
2022-10-17T16:47:53.389Z,101979.88
2022-10-17T16:50:50.650Z,101984.44
2022-10-17T16:53:50.270Z,101991.88
2022-10-17T16:56:47.770Z,101994.84
2022-10-17T16:59:44.635Z,102000.69
2022-10-17T17:02:41.672Z,101993.78
2022-10-17T17:05:38.785Z,101990.94
2022-10-17T17:08:37.350Z,101999.53
2022-10-17T17:11:34.490Z,102004.16
2022-10-17T17:14:31.941Z,102007.09
2022-10-17T17:17:37.319Z,102023.81
2022-10-17T17:20:45.726Z,102030.16
2022-10-17T17:23:43.319Z,102042.84
2022-10-17T17:26:41.806Z,102040.44
2022-10-17T17:29:40.808Z,102040.38
2022-10-17T17:32:38.092Z,102054.63
2022-10-17T17:35:35.393Z,102058.06
2022-10-17T17:38:34.061Z,102062.50
2022-10-17T17:41:32.140Z,102052.03
2022-10-17T17:44:29.853Z,102068.09
2022-10-17T17:47:29.206Z,102068.09
2022-10-17T17:50:26.912Z,102063.28
2022-10-17T17:53:23.813Z,102068.03
2022-10-17T17:56:28.761Z,102057.22
2022-10-17T17:59:26.107Z,102058.59
2022-10-17T18:02:23.760Z,102055.34
2022-10-17T18:05:20.895Z,102073.75
2022-10-17T18:08:17.949Z,102069.41
2022-10-17T18:11:17.173Z,102077.41
2022-10-17T18:14:19.113Z,102076.59
2022-10-17T18:17:15.596Z,102078.06
2022-10-17T18:20:13.037Z,102079.28
2022-10-17T18:23:10.525Z,102078.97
2022-10-17T18:26:07.858Z,102082.22
2022-10-17T18:29:04.801Z,102075.56
2022-10-17T18:32:01.987Z,102089.44
2022-10-17T18:34:58.761Z,102084.41
2022-10-17T18:37:57.110Z,102083.22
2022-10-17T18:41:02.945Z,102074.19
2022-10-17T18:43:59.765Z,102066.06
2022-10-17T18:46:59.893Z,102075.22
2022-10-17T18:50:01.181Z,102076.59
2022-10-17T18:52:58.520Z,102091.69
2022-10-17T18:55:56.226Z,102095.41
2022-10-17T18:58:53.877Z,102103.53
2022-10-17T19:01:51.225Z,102102.97
2022-10-17T19:07:47.351Z,102098.97
2022-10-17T19:10:44.880Z,102101.06
2022-10-17T19:13:42.267Z,102115.91
2022-10-17T19:16:45.358Z,102107.19
2022-10-17T19:19:43.261Z,102105.53
2022-10-17T19:22:40.665Z,102119.13
2022-10-17T19:25:38.048Z,102112.59
2022-10-17T19:28:35.075Z,102112.50
2022-10-17T19:31:32.733Z,102110.81
2022-10-17T19:34:30.151Z,102122.25
2022-10-17T19:37:26.900Z,102126.78
2022-10-17T19:40:23.773Z,102123.59
2022-10-17T19:43:20.927Z,102134.44
2022-10-17T19:46:19.257Z,102129.91
2022-10-17T19:49:17.148Z,102127.50
2022-10-17T19:52:14.881Z,102131.97
2022-10-17T19:55:11.747Z,102148.06
2022-10-17T19:58:08.735Z,102160.94
2022-10-17T20:01:05.927Z,102162.50
2022-10-17T20:04:03.154Z,102167.09
2022-10-17T20:07:01.422Z,102166.38
2022-10-17T20:09:58.717Z,102179.44
2022-10-17T20:12:55.907Z,102183.53
2022-10-17T20:15:56.760Z,102179.44
2022-10-17T20:18:55.829Z,102192.69
2022-10-17T20:21:53.004Z,102192.69
2022-10-17T20:24:50.041Z,102201.19
2022-10-17T20:27:46.576Z,102195.03
2022-10-17T20:30:45.670Z,102203.94
2022-10-17T20:33:43.067Z,102213.84
2022-10-17T20:36:40.091Z,102219.56
2022-10-17T20:39:36.839Z,102224.91
2022-10-17T20:42:33.943Z,102217.47
2022-10-17T20:45:44.255Z,102230.47
2022-10-17T20:48:55.102Z,102230.25
2022-10-17T20:51:51.931Z,102234.41
2022-10-17T20:54:48.789Z,102227.31
2022-10-17T20:57:45.841Z,102230.63
2022-10-17T21:00:42.909Z,102231.00
2022-10-17T21:03:43.840Z,102241.31
2022-10-17T21:06:48.227Z,102236.81
2022-10-17T21:09:46.377Z,102250.91
2022-10-17T21:12:53.875Z,102250.41
2022-10-17T21:15:52.145Z,102250.13
2022-10-17T21:18:49.488Z,102251.56
2022-10-17T21:21:46.909Z,102246.38
2022-10-17T21:24:43.719Z,102247.09
2022-10-17T21:27:41.173Z,102254.81
2022-10-17T21:30:37.978Z,102257.38
2022-10-17T21:33:34.978Z,102246.63
2022-10-17T21:36:31.694Z,102251.97
2022-10-17T21:39:28.748Z,102251.50
2022-10-17T21:42:25.684Z,102244.19
2022-10-17T21:45:25.979Z,102242.91
2022-10-17T21:48:23.123Z,102246.88
2022-10-17T21:51:25.118Z,102236.94
2022-10-17T21:54:23.071Z,102234.22
2022-10-17T21:57:20.235Z,102240.94
2022-10-17T22:00:17.151Z,102240.63
2022-10-17T22:03:15.222Z,102233.66
2022-10-17T22:06:41.747Z,102238.22
2022-10-17T22:09:30.215Z,102237.84
2022-10-17T22:12:27.145Z,102239.16
2022-10-17T22:15:24.078Z,102243.81
2022-10-17T22:18:20.820Z,102245.09
2022-10-17T22:21:20.121Z,102255.41
2022-10-17T22:24:18.064Z,102248.69
2022-10-17T22:27:14.790Z,102244.94
2022-10-17T22:30:12.230Z,102255.50
2022-10-17T22:33:09.093Z,102257.06
2022-10-17T22:36:07.077Z,102264.88
2022-10-17T22:39:03.922Z,102256.78
2022-10-17T22:42:01.085Z,102259.63
2022-10-17T22:44:58.066Z,102268.28
2022-10-17T22:47:54.925Z,102267.41
2022-10-17T22:50:52.470Z,102271.56
2022-10-17T22:53:49.817Z,102275.56
2022-10-17T22:56:46.859Z,102268.19
2022-10-17T22:59:43.894Z,102273.50
2022-10-17T23:02:40.665Z,102272.78
2022-10-17T23:05:38.127Z,102273.22
2022-10-17T23:08:35.204Z,102269.31
2022-10-17T23:11:31.999Z,102267.66
2022-10-17T23:14:28.969Z,102263.06
2022-10-17T23:17:26.146Z,102260.47
2022-10-17T23:20:23.054Z,102267.53
2022-10-17T23:23:20.352Z,102273.97
2022-10-17T23:26:16.825Z,102267.44
2022-10-17T23:29:13.908Z,102269.84
2022-10-17T23:32:10.975Z,102261.16
2022-10-17T23:35:08.642Z,102265.22
2022-10-17T23:38:06.202Z,102252.41
2022-10-17T23:41:02.986Z,102260.59
2022-10-17T23:43:59.971Z,102266.53
2022-10-17T23:46:57.008Z,102277.66
2022-10-17T23:49:53.849Z,102275.81
2022-10-17T23:52:50.981Z,102273.97
2022-10-17T23:55:47.998Z,102272.78
2022-10-17T23:58:45.285Z,102266.13
